Waukesha County Airport (UES)


Airport Diagram
Current Weather/Forecast (MVFR Conditions)
METAR KUES 251045Z 04011G16KT 7SM RA OVC020 07/05 A2989
TAF KUES 250904Z 2509/2606 05013G23KT 6SM -RA BR OVC025 FM251500 03018G30KT P6SM VCSH OVC014 FM251800 03017G27KT P6SM VCSH BKN022 FM252200 01014G24KT P6SM BKN030 FM260000 01013G22KT P6SM SCT040

All Charts
General
Chart Name Download
AIRPORT DIAGRAM
TAKEOFF MINIMUMS
ALTERNATE MINIMUMS

Departures
Chart Name Download
ACCRA FIVE (RNAV)
UECKR SIX (RNAV)

Arrivals
Chart Name Download
GOPAC TWO (RNAV)

Approaches
Chart Name Download
ILS OR LOC RWY 10
RNAV (GPS) RWY 10
RNAV (GPS) RWY 28
VOR-A